createdAt,value
2023-02-02T00:01:52.946Z,101160.59
2023-02-02T00:06:48.441Z,101158.81
2023-02-02T00:11:43.607Z,101140.97
2023-02-02T00:16:40.124Z,101150.75
2023-02-02T00:21:34.277Z,101117.69
2023-02-02T00:26:28.179Z,101164.78
2023-02-02T00:31:22.335Z,101136.44
2023-02-02T00:36:15.894Z,101156.91
2023-02-02T00:41:09.372Z,101161.50
2023-02-02T00:46:02.259Z,101129.13
2023-02-02T00:50:57.039Z,101170.66
2023-02-02T00:55:50.859Z,101142.63
2023-02-02T01:00:44.227Z,101186.47
2023-02-02T01:05:37.354Z,101181.25
2023-02-02T01:10:31.496Z,101159.75
2023-02-02T01:15:26.153Z,101173.09
2023-02-02T01:20:21.051Z,101172.31
2023-02-02T01:25:14.040Z,101193.78
2023-02-02T01:30:09.462Z,101197.38
2023-02-02T01:35:06.436Z,101195.91
2023-02-02T01:39:59.779Z,101201.16
2023-02-02T01:45:24.727Z,101196.78
2023-02-02T01:50:20.471Z,101190.94
2023-02-02T01:55:16.480Z,101194.38
2023-02-02T02:00:13.306Z,101183.91
2023-02-02T02:05:09.350Z,101175.66
2023-02-02T02:10:02.792Z,101183.47
2023-02-02T02:15:13.329Z,101194.50
2023-02-02T02:20:39.872Z,101186.47
2023-02-02T02:26:14.566Z,101174.94
2023-02-02T02:31:20.442Z,101147.31
2023-02-02T02:36:35.287Z,101149.09
2023-02-02T02:41:33.379Z,101163.41
2023-02-02T02:46:32.136Z,101152.47
2023-02-02T02:51:44.323Z,101168.41
2023-02-02T02:56:54.635Z,101157.81
2023-02-02T03:02:02.305Z,101141.63
2023-02-02T03:07:26.305Z,101173.72
2023-02-02T03:12:18.571Z,101145.13
2023-02-02T03:17:11.772Z,101171.81
2023-02-02T03:22:06.083Z,101184.13
2023-02-02T03:26:58.915Z,101189.44
2023-02-02T03:31:51.635Z,101182.13
2023-02-02T03:36:44.787Z,101176.91
2023-02-02T03:41:42.337Z,101213.13
2023-02-02T03:46:36.090Z,101225.50
2023-02-02T03:51:29.769Z,101200.41
2023-02-02T03:56:23.761Z,101213.47
2023-02-02T04:01:16.708Z,101203.06
2023-02-02T04:06:09.900Z,101193.97
2023-02-02T04:11:03.445Z,101230.81
2023-02-02T04:16:01.004Z,101249.97
2023-02-02T04:21:01.282Z,101253.47
2023-02-02T04:25:54.601Z,101243.75
2023-02-02T04:30:47.952Z,101239.63
2023-02-02T04:35:42.117Z,101236.50
2023-02-02T04:40:46.677Z,101220.69
2023-02-02T04:45:39.465Z,101211.56
2023-02-02T04:50:37.540Z,101241.09
2023-02-02T04:55:31.534Z,101243.66
2023-02-02T05:00:25.781Z,101241.09
2023-02-02T05:05:20.852Z,101220.44
2023-02-02T05:10:14.269Z,101198.56
2023-02-02T05:15:10.916Z,101202.13
2023-02-02T05:20:04.379Z,101209.25
2023-02-02T05:24:57.280Z,101221.06
2023-02-02T05:29:49.930Z,101208.53
2023-02-02T05:34:43.805Z,101223.72
2023-02-02T05:39:36.830Z,101228.25
2023-02-02T05:44:30.775Z,101219.44
2023-02-02T05:49:24.871Z,101225.03
2023-02-02T05:54:20.635Z,101234.66
2023-02-02T05:59:13.272Z,101243.22
2023-02-02T06:04:06.254Z,101276.41
2023-02-02T06:08:59.347Z,101281.63
2023-02-02T06:13:56.497Z,101278.19
2023-02-02T06:18:49.997Z,101266.88
2023-02-02T06:23:46.941Z,101271.78
2023-02-02T06:28:40.262Z,101294.16
2023-02-02T06:33:33.736Z,101271.66
2023-02-02T06:38:27.009Z,101295.78
2023-02-02T06:43:20.890Z,101311.47
2023-02-02T06:48:14.304Z,101278.66
2023-02-02T06:53:07.744Z,101306.78
2023-02-02T06:58:03.940Z,101274.59
2023-02-02T07:02:56.872Z,101275.38
2023-02-02T07:07:53.344Z,101282.16
2023-02-02T07:12:47.629Z,101266.59
2023-02-02T07:17:41.819Z,101247.72
2023-02-02T07:22:35.251Z,101295.81
2023-02-02T07:27:28.427Z,101294.72
2023-02-02T07:32:20.739Z,101303.38
2023-02-02T07:37:14.788Z,101289.50
2023-02-02T07:42:09.357Z,101291.34
2023-02-02T07:47:03.753Z,101269.38
2023-02-02T07:51:56.960Z,101272.19
2023-02-02T07:56:49.453Z,101298.16
2023-02-02T08:01:42.283Z,101282.94
2023-02-02T08:06:38.607Z,101306.31
2023-02-02T08:11:32.520Z,101291.44
2023-02-02T08:16:27.152Z,101286.28
2023-02-02T08:21:21.223Z,101302.28
2023-02-02T08:26:23.961Z,101310.22
2023-02-02T08:31:20.928Z,101305.28
2023-02-02T08:36:15.998Z,101307.06
2023-02-02T08:41:11.633Z,101291.16
2023-02-02T08:46:05.872Z,101324.44
2023-02-02T08:51:00.241Z,101320.75
2023-02-02T08:55:59.736Z,101318.06
2023-02-02T09:00:53.399Z,101333.03
2023-02-02T09:05:46.633Z,101326.78
2023-02-02T09:10:40.044Z,101313.22
2023-02-02T09:15:33.391Z,101320.72
2023-02-02T09:20:30.171Z,101342.34
2023-02-02T09:25:23.076Z,101345.97
2023-02-02T09:30:17.544Z,101334.22
2023-02-02T09:35:14.815Z,101347.47
2023-02-02T09:40:13.847Z,101344.69
2023-02-02T09:45:08.739Z,101355.28
2023-02-02T09:50:22.365Z,101365.56
2023-02-02T09:55:24.234Z,101394.66
2023-02-02T10:00:39.577Z,101386.84
2023-02-02T10:05:45.613Z,101399.94
2023-02-02T10:10:45.320Z,101374.03
2023-02-02T10:16:05.459Z,101398.78
2023-02-02T10:21:04.032Z,101388.78
2023-02-02T10:26:23.359Z,101414.53
2023-02-02T10:31:39.234Z,101389.50
2023-02-02T10:36:34.149Z,101396.06
2023-02-02T10:41:32.615Z,101393.50
2023-02-02T10:46:56.523Z,101385.53
2023-02-02T10:52:02.075Z,101350.06
2023-02-02T10:57:16.705Z,101361.84
2023-02-02T11:02:20.765Z,101361.94
2023-02-02T11:07:20.758Z,101319.34
2023-02-02T11:12:20.765Z,101328.22
2023-02-02T11:17:22.379Z,101314.25
2023-02-02T11:22:26.981Z,101321.19
2023-02-02T11:27:43.715Z,101314.19
2023-02-02T11:32:39.463Z,101287.50
2023-02-02T11:37:38.357Z,101308.09
2023-02-02T11:42:30.916Z,101297.34
2023-02-02T11:47:34.392Z,101300.06
2023-02-02T11:52:32.612Z,101260.03
2023-02-02T11:57:28.372Z,101266.66
2023-02-02T12:02:21.296Z,101263.16
2023-02-02T12:07:30.339Z,101219.97
2023-02-02T12:12:41.581Z,101240.38
2023-02-02T12:17:44.703Z,101225.88
2023-02-02T12:22:50.006Z,101228.31
2023-02-02T12:27:49.222Z,101231.13
2023-02-02T12:32:55.820Z,101214.59
2023-02-02T12:38:14.650Z,101216.19
2023-02-02T12:43:15.464Z,101199.72
2023-02-02T12:48:22.363Z,101203.78
2023-02-02T12:53:24.546Z,101207.34
2023-02-02T12:58:31.312Z,101200.19
2023-02-02T13:03:31.253Z,101190.44
2023-02-02T13:08:35.696Z,101162.59
2023-02-02T13:13:41.832Z,101187.28
2023-02-02T13:18:41.681Z,101152.44
2023-02-02T13:23:50.005Z,101165.53
2023-02-02T13:28:58.941Z,101195.59
2023-02-02T13:34:16.467Z,101149.41
2023-02-02T13:39:33.269Z,101173.22
2023-02-02T13:44:36.602Z,101164.59
2023-02-02T13:49:41.046Z,101181.03
2023-02-02T13:54:56.368Z,101177.53
2023-02-02T13:59:50.290Z,101162.03
2023-02-02T14:04:47.724Z,101150.50
2023-02-02T14:09:43.244Z,101161.78
2023-02-02T14:14:42.942Z,101174.03
2023-02-02T14:19:35.880Z,101198.50
2023-02-02T14:24:31.068Z,101190.38
2023-02-02T14:29:47.230Z,101184.22
2023-02-02T14:34:44.048Z,101185.25
2023-02-02T14:39:54.550Z,101164.78
2023-02-02T14:45:08.229Z,101178.63
2023-02-02T14:50:01.431Z,101180.88
2023-02-02T14:54:57.965Z,101172.31
2023-02-02T14:59:53.712Z,101167.78
2023-02-02T15:04:50.437Z,101170.13
2023-02-02T15:09:45.031Z,101142.72
2023-02-02T15:14:49.715Z,101185.53
2023-02-02T15:19:45.506Z,101156.09
2023-02-02T15:24:38.753Z,101170.59
2023-02-02T15:29:46.876Z,101168.13
2023-02-02T15:34:47.903Z,101174.25
2023-02-02T15:39:46.662Z,101166.94
2023-02-02T15:44:39.568Z,101179.34
2023-02-02T15:49:36.347Z,101209.72
2023-02-02T15:54:32.794Z,101202.56
2023-02-02T15:59:31.563Z,101174.19
2023-02-02T16:04:35.482Z,101183.47
2023-02-02T16:09:36.100Z,101200.06
2023-02-02T16:14:30.679Z,101206.28
2023-02-02T16:19:27.322Z,101195.84
2023-02-02T16:24:27.033Z,101194.44
2023-02-02T16:29:20.638Z,101179.09
2023-02-02T16:34:40.690Z,101173.41
2023-02-02T16:39:34.497Z,101207.78
2023-02-02T16:44:36.601Z,101210.97
2023-02-02T16:49:31.485Z,101225.06
2023-02-02T16:54:24.861Z,101235.75
2023-02-02T16:59:27.353Z,101218.41
2023-02-02T17:04:28.480Z,101233.94
2023-02-02T17:09:34.314Z,101226.06
2023-02-02T17:14:34.798Z,101255.34
2023-02-02T17:19:29.854Z,101258.94
2023-02-02T17:24:24.012Z,101246.78
2023-02-02T17:29:20.085Z,101272.66
2023-02-02T17:34:17.334Z,101275.94
2023-02-02T17:39:11.770Z,101254.59
2023-02-02T17:44:09.888Z,101274.91
2023-02-02T17:49:04.715Z,101282.03
2023-02-02T17:54:06.556Z,101263.16
2023-02-02T17:59:08.287Z,101248.66
2023-02-02T18:04:05.628Z,101300.41
2023-02-02T18:09:06.151Z,101271.00
2023-02-02T18:14:08.110Z,101291.53
2023-02-02T18:19:06.760Z,101267.19
2023-02-02T18:24:04.981Z,101290.28
2023-02-02T18:29:05.797Z,101262.69
2023-02-02T18:34:03.622Z,101291.22
2023-02-02T18:38:59.423Z,101294.72
2023-02-02T18:43:55.093Z,101292.28
2023-02-02T18:48:50.205Z,101296.44
2023-02-02T18:53:46.178Z,101316.59
2023-02-02T18:58:45.706Z,101310.09
2023-02-02T19:03:41.649Z,101325.09
2023-02-02T19:08:35.488Z,101291.75
2023-02-02T19:13:30.918Z,101317.06
2023-02-02T19:18:27.075Z,101324.03
2023-02-02T19:23:30.296Z,101313.59
2023-02-02T19:28:27.104Z,101297.91
2023-02-02T19:33:21.770Z,101277.47
2023-02-02T19:38:16.529Z,101339.59
2023-02-02T19:43:27.533Z,101320.25
2023-02-02T19:48:25.531Z,101352.22
2023-02-02T19:53:23.628Z,101340.34
2023-02-02T19:58:24.961Z,101332.03
2023-02-02T20:03:35.465Z,101370.84
2023-02-02T20:08:36.145Z,101376.09
2023-02-02T20:13:31.832Z,101357.94
2023-02-02T20:18:32.958Z,101340.31
2023-02-02T20:23:28.398Z,101379.97
2023-02-02T20:28:26.619Z,101403.81
2023-02-02T20:33:24.770Z,101374.53
2023-02-02T20:38:35.635Z,101400.22
2023-02-02T20:43:28.590Z,101408.09
2023-02-02T20:48:22.140Z,101427.22
2023-02-02T20:53:16.774Z,101444.03
2023-02-02T20:58:09.863Z,101425.41
2023-02-02T21:03:03.473Z,101419.56
2023-02-02T21:07:56.942Z,101424.88
2023-02-02T21:12:51.527Z,101463.72
2023-02-02T21:17:49.406Z,101450.69
2023-02-02T21:22:42.369Z,101447.34
2023-02-02T21:27:36.067Z,101463.72
2023-02-02T21:32:29.029Z,101476.19
2023-02-02T21:37:21.792Z,101473.06
2023-02-02T21:42:15.369Z,101503.50
2023-02-02T21:47:27.690Z,101509.59
2023-02-02T21:52:21.756Z,101514.72
2023-02-02T21:57:19.410Z,101542.97
2023-02-02T22:02:38.739Z,101515.50
2023-02-02T22:07:33.792Z,101503.88
2023-02-02T22:12:29.277Z,101529.69
2023-02-02T22:17:42.445Z,101511.81
2023-02-02T22:22:37.339Z,101534.38
2023-02-02T22:27:53.515Z,101530.00
2023-02-02T22:32:46.782Z,101501.88
2023-02-02T22:37:40.313Z,101545.13
2023-02-02T22:42:33.791Z,101507.47
2023-02-02T22:47:26.783Z,101525.53
2023-02-02T22:52:19.997Z,101547.91
2023-02-02T22:57:14.458Z,101568.34
2023-02-02T23:02:08.376Z,101559.44
2023-02-02T23:07:02.842Z,101542.28
2023-02-02T23:12:00.651Z,101531.88
2023-02-02T23:16:56.221Z,101557.69
2023-02-02T23:21:50.647Z,101538.84
2023-02-02T23:26:46.917Z,101548.44
2023-02-02T23:31:42.445Z,101571.06
2023-02-02T23:36:37.449Z,101582.97
2023-02-02T23:41:30.232Z,101589.97
2023-02-02T23:46:23.315Z,101558.16
2023-02-02T23:51:17.374Z,101590.28
2023-02-02T23:56:10.307Z,101609.91
